createdAt,value
2019-05-29T00:01:31.967Z,5.70
2019-05-29T00:03:04.320Z,5.17
2019-05-29T00:04:36.729Z,4.87
2019-05-29T00:06:10.222Z,5.20
2019-05-29T00:07:42.719Z,5.23
2019-05-29T00:09:15.147Z,5.63
2019-05-29T00:10:47.551Z,5.50
2019-05-29T00:12:21.268Z,5.30
2019-05-29T00:13:53.756Z,4.83
2019-05-29T00:15:26.084Z,4.67
2019-05-29T00:16:58.411Z,5.07
2019-05-29T00:18:30.771Z,6.23
2019-05-29T00:20:03.197Z,5.63
2019-05-29T00:21:35.671Z,4.67
2019-05-29T00:23:08.448Z,5.03
2019-05-29T00:24:41.112Z,4.50
2019-05-29T00:26:14.557Z,4.57
2019-05-29T00:27:47.160Z,4.93
2019-05-29T00:29:19.562Z,5.07
2019-05-29T00:30:51.976Z,4.90
2019-05-29T00:32:24.313Z,4.37
2019-05-29T00:33:56.720Z,4.77
2019-05-29T00:35:29.092Z,4.47
2019-05-29T00:37:01.710Z,4.67
2019-05-29T00:38:34.206Z,4.83
2019-05-29T00:40:06.830Z,4.10
2019-05-29T00:41:39.235Z,4.37
2019-05-29T00:43:11.700Z,4.73
2019-05-29T00:44:44.236Z,4.90
2019-05-29T00:46:17.595Z,4.50
2019-05-29T00:47:50.179Z,4.63
2019-05-29T00:49:22.517Z,5.43
2019-05-29T00:50:54.948Z,4.97
2019-05-29T00:52:27.355Z,4.50
2019-05-29T00:53:59.691Z,4.80
2019-05-29T00:55:32.170Z,4.30
2019-05-29T00:57:04.735Z,4.97
2019-05-29T00:58:37.256Z,4.87
2019-05-29T01:00:09.624Z,4.53
2019-05-29T01:01:42.050Z,4.40
2019-05-29T01:03:15.735Z,4.23
2019-05-29T01:04:48.342Z,4.50
2019-05-29T01:06:20.902Z,3.90
2019-05-29T01:07:53.381Z,4.50
2019-05-29T01:09:25.793Z,4.70
2019-05-29T01:10:58.198Z,4.53
2019-05-29T01:12:30.696Z,4.03
2019-05-29T01:14:03.029Z,4.53
2019-05-29T01:15:35.433Z,4.73
2019-05-29T01:17:07.863Z,4.10
2019-05-29T01:18:40.193Z,4.60
2019-05-29T01:20:13.922Z,4.40
2019-05-29T01:21:46.657Z,4.37
2019-05-29T01:23:18.991Z,3.90
2019-05-29T01:24:51.386Z,4.23
2019-05-29T01:26:23.792Z,4.27
2019-05-29T01:27:56.227Z,4.80
2019-05-29T01:29:28.689Z,4.90
2019-05-29T01:31:01.097Z,4.93
2019-05-29T01:32:33.527Z,4.03
2019-05-29T01:34:05.939Z,3.90
2019-05-29T01:35:38.409Z,4.50
2019-05-29T01:37:10.739Z,4.47
2019-05-29T01:38:43.177Z,4.47
2019-05-29T01:40:23.120Z,4.20
2019-05-29T01:41:49.744Z,4.50
2019-05-29T01:43:23.460Z,4.43
2019-05-29T01:45:07.109Z,4.00
2019-05-29T01:46:30.182Z,4.53
2019-05-29T01:48:02.543Z,4.27
2019-05-29T01:49:35.017Z,4.60
2019-05-29T01:51:07.467Z,4.63
2019-05-29T01:52:41.070Z,4.13
2019-05-29T01:54:13.492Z,3.90
2019-05-29T01:55:45.991Z,4.40
2019-05-29T01:57:19.612Z,4.33
2019-05-29T01:58:52.203Z,4.77
2019-05-29T02:00:24.617Z,4.30
2019-05-29T02:01:57.015Z,4.67
2019-05-29T02:03:29.378Z,4.50
2019-05-29T02:05:02.033Z,4.53
2019-05-29T02:06:34.491Z,4.97
2019-05-29T02:08:06.957Z,4.57
2019-05-29T02:09:39.305Z,4.73
2019-05-29T02:11:11.713Z,4.73
2019-05-29T02:12:44.187Z,4.50
2019-05-29T02:14:16.536Z,4.70
2019-05-29T02:15:49.019Z,3.83
2019-05-29T02:17:21.807Z,4.50
2019-05-29T02:18:54.360Z,4.13
2019-05-29T02:20:27.193Z,4.60
2019-05-29T02:21:59.703Z,4.40
2019-05-29T02:23:33.163Z,4.57
2019-05-29T02:25:05.583Z,4.67
2019-05-29T02:26:37.980Z,4.67
2019-05-29T02:28:10.315Z,4.60
2019-05-29T02:29:42.738Z,4.80
2019-05-29T02:31:15.272Z,5.40
2019-05-29T02:32:47.719Z,4.63
2019-05-29T02:34:20.758Z,4.93
2019-05-29T02:35:54.238Z,4.70
2019-05-29T02:37:26.571Z,4.70
2019-05-29T02:38:58.985Z,5.03
2019-05-29T02:40:31.488Z,4.67
2019-05-29T02:42:03.891Z,5.00
2019-05-29T02:43:36.392Z,4.97
2019-05-29T02:45:08.894Z,5.63
2019-05-29T02:46:41.277Z,5.27
2019-05-29T02:48:14.160Z,6.10
2019-05-29T02:49:46.677Z,5.77
2019-05-29T02:51:19.780Z,5.43
2019-05-29T02:52:52.383Z,5.17
2019-05-29T02:54:26.629Z,5.23
2019-05-29T02:55:58.922Z,5.60
2019-05-29T02:57:31.390Z,5.63
2019-05-29T02:59:03.866Z,5.40
2019-05-29T03:00:36.312Z,5.57
2019-05-29T03:02:08.734Z,5.70
2019-05-29T03:03:41.206Z,5.47
2019-05-29T03:05:13.704Z,6.10
2019-05-29T03:06:46.210Z,5.73
2019-05-29T03:08:18.689Z,5.83
2019-05-29T03:09:51.101Z,6.03
2019-05-29T03:11:25.040Z,7.07
2019-05-29T03:12:57.699Z,5.93
2019-05-29T03:14:31.647Z,5.93
2019-05-29T03:16:11.472Z,5.83
2019-05-29T03:17:38.266Z,6.57
2019-05-29T03:19:10.599Z,6.67
2019-05-29T03:20:43.080Z,5.80
2019-05-29T03:22:15.506Z,6.80
2019-05-29T03:23:47.931Z,6.50
2019-05-29T03:25:20.402Z,5.70
2019-05-29T03:26:52.900Z,6.30
2019-05-29T03:28:25.660Z,6.70
2019-05-29T03:29:59.266Z,6.50
2019-05-29T03:31:38.092Z,6.20
2019-05-29T03:33:05.791Z,6.83
2019-05-29T03:34:45.715Z,7.15
2019-05-29T03:36:12.336Z,6.93
2019-05-29T03:37:44.850Z,6.33
2019-05-29T03:39:17.191Z,6.87
2019-05-29T03:40:49.965Z,7.10
2019-05-29T03:42:22.404Z,7.00
2019-05-29T03:43:54.885Z,6.73
2019-05-29T03:45:28.784Z,6.77
2019-05-29T03:47:01.412Z,7.27
2019-05-29T03:48:34.445Z,6.80
2019-05-29T03:50:07.030Z,6.77
2019-05-29T03:51:39.486Z,6.57
2019-05-29T03:53:12.051Z,7.93
2019-05-29T03:54:44.700Z,7.33
2019-05-29T03:56:17.108Z,8.27
2019-05-29T03:57:49.641Z,8.27
2019-05-29T03:59:22.121Z,6.80
2019-05-29T04:00:54.537Z,7.50
2019-05-29T04:02:28.526Z,7.47
2019-05-29T04:04:02.294Z,7.93
2019-05-29T04:05:35.465Z,7.17
2019-05-29T04:07:08.673Z,8.17
2019-05-29T04:08:42.582Z,6.93
2019-05-29T04:10:15.061Z,7.00
2019-05-29T04:11:47.984Z,7.90
2019-05-29T04:13:21.390Z,7.17
2019-05-29T04:14:53.839Z,7.87
2019-05-29T04:16:27.559Z,7.53
2019-05-29T04:18:00.691Z,6.87
2019-05-29T04:19:34.858Z,8.07
2019-05-29T04:21:07.241Z,7.63
2019-05-29T04:22:40.475Z,7.33
2019-05-29T04:24:12.815Z,7.37
2019-05-29T04:25:45.315Z,7.17
2019-05-29T04:27:17.738Z,7.47
2019-05-29T04:28:50.143Z,7.47
2019-05-29T04:30:22.880Z,7.63
2019-05-29T04:31:55.407Z,7.73
2019-05-29T04:33:28.190Z,8.30
2019-05-29T04:35:00.643Z,7.23
2019-05-29T04:36:34.757Z,7.77
2019-05-29T04:38:07.393Z,7.60
2019-05-29T04:39:40.453Z,7.87
2019-05-29T04:41:13.573Z,6.87
2019-05-29T04:42:46.045Z,7.40
2019-05-29T04:44:18.720Z,7.77
2019-05-29T04:45:51.210Z,7.73
2019-05-29T04:47:23.681Z,7.23
2019-05-29T04:48:56.137Z,8.10
2019-05-29T04:50:29.166Z,8.37
2019-05-29T04:52:01.720Z,7.60
2019-05-29T04:53:35.512Z,7.53
2019-05-29T04:55:08.085Z,7.80
2019-05-29T04:56:40.423Z,6.87
2019-05-29T04:58:12.857Z,7.70
2019-05-29T04:59:45.348Z,7.90
2019-05-29T05:01:17.743Z,7.83
2019-05-29T05:02:50.555Z,7.57
2019-05-29T05:04:23.051Z,8.23
2019-05-29T05:05:55.487Z,8.33
2019-05-29T05:07:29.489Z,8.07
2019-05-29T05:09:02.578Z,7.73
2019-05-29T05:10:35.621Z,6.93
2019-05-29T05:12:08.184Z,7.33
2019-05-29T05:13:40.590Z,7.80
2019-05-29T05:15:12.953Z,8.10
2019-05-29T05:16:46.135Z,7.97
2019-05-29T05:18:19.642Z,6.67
2019-05-29T05:19:52.765Z,8.17
2019-05-29T05:21:26.130Z,6.87
2019-05-29T05:23:00.496Z,8.43
2019-05-29T05:24:34.203Z,8.47
2019-05-29T05:26:07.512Z,7.90
2019-05-29T05:27:40.612Z,8.33
2019-05-29T05:29:13.459Z,8.10
2019-05-29T05:30:45.887Z,8.80
2019-05-29T05:32:18.338Z,8.13
2019-05-29T05:33:50.736Z,8.10
2019-05-29T05:35:23.068Z,8.27
2019-05-29T05:36:55.508Z,7.70
2019-05-29T05:38:27.911Z,8.10
2019-05-29T05:40:00.315Z,8.27
2019-05-29T05:41:32.793Z,7.83
2019-05-29T05:43:05.259Z,9.13
2019-05-29T05:44:37.755Z,8.20
2019-05-29T05:46:11.568Z,7.90
2019-05-29T05:47:56.378Z,7.53
2019-05-29T05:49:18.027Z,8.10
2019-05-29T05:50:50.523Z,8.40
2019-05-29T05:52:22.879Z,8.47
2019-05-29T05:53:55.286Z,7.60
2019-05-29T05:55:27.691Z,7.00
2019-05-29T05:57:00.114Z,7.83
2019-05-29T05:58:33.671Z,6.80
2019-05-29T06:00:06.419Z,6.60
2019-05-29T06:01:39.941Z,6.83
2019-05-29T06:03:12.578Z,7.70
2019-05-29T06:04:45.062Z,7.70
2019-05-29T06:06:17.475Z,7.03
2019-05-29T06:07:49.975Z,7.17
2019-05-29T06:09:22.406Z,8.00
2019-05-29T06:10:54.790Z,7.33
2019-05-29T06:12:27.266Z,7.40
2019-05-29T06:13:59.701Z,7.60
2019-05-29T06:15:32.384Z,6.60
2019-05-29T06:17:05.029Z,7.13
2019-05-29T06:18:38.463Z,6.73
2019-05-29T06:20:10.850Z,6.53
2019-05-29T06:21:43.316Z,6.30
2019-05-29T06:23:15.735Z,6.97
2019-05-29T06:24:48.096Z,6.67
2019-05-29T06:26:20.551Z,7.07
2019-05-29T06:27:53.030Z,6.60
2019-05-29T06:29:25.477Z,6.00
2019-05-29T06:30:57.946Z,6.43
2019-05-29T06:32:30.359Z,6.80
2019-05-29T06:34:02.725Z,6.30
2019-05-29T06:35:35.845Z,7.20
2019-05-29T06:37:08.496Z,7.97
2019-05-29T06:38:42.144Z,6.70
2019-05-29T06:40:14.733Z,6.93
2019-05-29T06:41:47.201Z,6.87
2019-05-29T06:43:19.607Z,7.63
2019-05-29T06:44:52.108Z,7.00
2019-05-29T06:46:24.560Z,8.10
2019-05-29T06:47:56.990Z,7.57
2019-05-29T06:49:29.503Z,7.37
2019-05-29T06:51:01.967Z,7.83
2019-05-29T06:52:35.328Z,8.17
2019-05-29T06:54:07.833Z,7.60
2019-05-29T06:55:40.258Z,7.27
2019-05-29T06:57:12.591Z,6.87
2019-05-29T06:58:44.924Z,7.50
2019-05-29T07:00:34.097Z,7.67
2019-05-29T07:01:51.418Z,7.70
2019-05-29T07:03:23.909Z,7.23
2019-05-29T07:04:56.383Z,7.40
2019-05-29T07:06:28.745Z,7.40
2019-05-29T07:08:16.506Z,6.93
2019-05-29T07:09:36.893Z,6.93
2019-05-29T07:11:09.410Z,6.70
2019-05-29T07:12:42.399Z,6.80
2019-05-29T07:14:15.193Z,7.57
2019-05-29T07:15:48.052Z,7.57
2019-05-29T07:17:20.488Z,6.40
2019-05-29T07:19:24.235Z,6.60
2019-05-29T07:20:27.347Z,6.80
2019-05-29T07:21:59.996Z,6.83
2019-05-29T07:23:32.871Z,6.13
2019-05-29T07:25:05.275Z,6.20
2019-05-29T07:26:38.905Z,6.20
2019-05-29T07:28:11.439Z,5.90
2019-05-29T07:29:45.145Z,5.87
2019-05-29T07:31:17.759Z,6.00
2019-05-29T07:32:57.540Z,6.40
2019-05-29T07:34:24.216Z,6.47
2019-05-29T07:35:56.918Z,5.93
2019-05-29T07:37:29.357Z,5.67
2019-05-29T07:39:03.676Z,5.87
2019-05-29T07:40:36.078Z,5.47
2019-05-29T07:42:08.673Z,4.87
2019-05-29T07:43:41.811Z,5.40
2019-05-29T07:45:14.569Z,5.30
2019-05-29T07:46:47.483Z,5.27
2019-05-29T07:48:21.208Z,4.53
2019-05-29T07:49:53.691Z,4.87
2019-05-29T07:51:26.172Z,5.00
2019-05-29T07:52:58.526Z,5.70
2019-05-29T07:54:30.925Z,5.33
2019-05-29T07:56:03.330Z,5.83
2019-05-29T07:57:35.824Z,5.27
2019-05-29T07:59:08.158Z,5.77
2019-05-29T08:01:00.961Z,5.23
2019-05-29T08:02:14.663Z,5.03
2019-05-29T08:03:47.457Z,5.17
2019-05-29T08:05:20.104Z,4.80
2019-05-29T08:06:54.535Z,5.17
2019-05-29T08:08:26.551Z,5.30
2019-05-29T08:09:58.957Z,5.40
2019-05-29T08:11:31.291Z,5.80
2019-05-29T08:13:03.800Z,5.07
2019-05-29T08:14:36.204Z,5.47
2019-05-29T08:18:18.632Z,4.90
2019-05-29T08:20:09.278Z,4.67
2019-05-29T08:22:00.100Z,4.77
2019-05-29T08:23:33.747Z,5.00
2019-05-29T08:25:06.189Z,4.40
2019-05-29T08:26:38.661Z,4.77
2019-05-29T08:28:10.996Z,4.77
2019-05-29T08:29:44.553Z,4.70
2019-05-29T08:31:17.311Z,4.43
2019-05-29T08:32:49.733Z,4.53
2019-05-29T08:34:22.217Z,4.80
2019-05-29T08:35:59.949Z,4.40
2019-05-29T08:37:28.739Z,5.23
2019-05-29T08:39:01.200Z,4.70
2019-05-29T08:40:33.697Z,5.10
2019-05-29T08:42:22.651Z,5.20
2019-05-29T08:43:40.178Z,4.50
2019-05-29T08:45:12.673Z,4.70
2019-05-29T08:47:01.691Z,4.53
2019-05-29T08:48:19.278Z,4.67
2019-05-29T08:49:54.417Z,4.37
2019-05-29T08:51:25.727Z,4.67
2019-05-29T08:52:58.084Z,4.20
2019-05-29T08:54:30.569Z,4.23
2019-05-29T08:56:03.013Z,4.30
2019-05-29T08:57:35.491Z,4.07
2019-05-29T08:59:07.824Z,4.33
2019-05-29T09:00:40.243Z,4.70
2019-05-29T09:02:12.650Z,5.03
2019-05-29T09:03:45.133Z,4.70
2019-05-29T09:05:17.562Z,4.17
2019-05-29T09:06:51.099Z,4.43
2019-05-29T09:08:23.906Z,4.57
2019-05-29T09:09:56.268Z,3.90
2019-05-29T09:11:28.864Z,4.23
2019-05-29T09:13:04.894Z,4.67
2019-05-29T09:14:35.333Z,4.47
2019-05-29T09:16:07.748Z,4.70
2019-05-29T09:17:40.152Z,4.97
2019-05-29T09:19:12.561Z,4.90
2019-05-29T09:21:02.129Z,4.93
2019-05-29T09:22:19.148Z,4.90
2019-05-29T09:23:51.589Z,4.57
2019-05-29T09:25:24.047Z,4.50
2019-05-29T09:26:56.452Z,4.27
2019-05-29T09:28:28.792Z,4.60
2019-05-29T09:30:01.270Z,4.07
2019-05-29T09:31:33.697Z,4.70
2019-05-29T09:33:06.105Z,4.07
2019-05-29T09:34:38.591Z,4.60
2019-05-29T09:36:11.096Z,4.67
2019-05-29T09:37:43.500Z,5.00
2019-05-29T09:39:16.672Z,5.03
2019-05-29T09:40:52.758Z,4.87
2019-05-29T09:42:25.343Z,4.13
2019-05-29T09:44:00.067Z,4.63
2019-05-29T09:45:32.065Z,4.47
2019-05-29T09:47:04.474Z,3.70
2019-05-29T09:48:49.173Z,3.90
2019-05-29T09:50:11.068Z,4.17
2019-05-29T09:51:43.497Z,4.43
2019-05-29T09:53:15.981Z,4.57
2019-05-29T09:54:48.460Z,5.13
2019-05-29T09:56:20.887Z,4.90
2019-05-29T09:57:54.114Z,5.00
2019-05-29T09:59:27.395Z,5.13
2019-05-29T10:01:18.678Z,4.70
2019-05-29T10:02:34.426Z,5.47
2019-05-29T10:04:06.842Z,4.50
2019-05-29T10:05:39.204Z,4.40
2019-05-29T10:07:11.704Z,4.77
2019-05-29T10:08:44.182Z,4.70
2019-05-29T10:10:16.595Z,4.57
2019-05-29T10:11:49.186Z,4.67
2019-05-29T10:13:21.519Z,4.50
2019-05-29T10:14:55.742Z,3.60
2019-05-29T10:16:28.259Z,3.80
2019-05-29T10:18:00.766Z,3.90
2019-05-29T10:19:33.257Z,3.80
2019-05-29T10:21:05.740Z,4.10
2019-05-29T10:22:38.244Z,4.60
2019-05-29T10:24:10.647Z,4.03
2019-05-29T10:25:43.152Z,4.90
2019-05-29T10:27:15.648Z,4.03
2019-05-29T10:29:02.071Z,4.90
2019-05-29T10:30:22.151Z,4.87
2019-05-29T10:31:54.616Z,4.40
2019-05-29T10:33:26.948Z,4.43
2019-05-29T10:34:59.343Z,4.53
2019-05-29T10:36:31.784Z,4.80
2019-05-29T10:38:04.297Z,5.08
2019-05-29T10:39:36.765Z,5.00
2019-05-29T10:41:09.250Z,5.45
2019-05-29T10:42:42.945Z,5.40
2019-05-29T10:44:15.534Z,5.10
2019-05-29T10:45:48.099Z,4.80
2019-05-29T10:47:22.247Z,4.58
2019-05-29T10:48:56.672Z,4.00
2019-05-29T10:50:28.948Z,4.12
2019-05-29T10:52:14.774Z,3.67
2019-05-29T10:53:35.404Z,4.27
2019-05-29T10:55:07.877Z,4.77
2019-05-29T10:56:40.303Z,5.12
2019-05-29T10:58:12.720Z,4.90
2019-05-29T10:59:45.132Z,4.87
2019-05-29T11:01:17.478Z,4.90
2019-05-29T11:02:50.594Z,4.67
2019-05-29T11:04:24.167Z,4.20
2019-05-29T11:05:56.659Z,3.98
2019-05-29T11:07:29.075Z,4.25
2019-05-29T11:09:01.567Z,4.17
2019-05-29T11:10:33.983Z,3.87
2019-05-29T11:12:06.758Z,3.92
2019-05-29T11:13:39.238Z,3.72
2019-05-29T11:15:21.530Z,4.70
2019-05-29T11:16:46.916Z,3.92
2019-05-29T11:18:19.648Z,4.08
2019-05-29T11:19:53.438Z,3.75
2019-05-29T11:21:26.198Z,3.77
2019-05-29T11:22:58.658Z,4.05
2019-05-29T11:24:31.080Z,3.50
2019-05-29T11:26:03.480Z,4.20
2019-05-29T11:27:35.907Z,4.22
2019-05-29T11:29:08.337Z,3.98
2019-05-29T11:30:40.822Z,3.80
2019-05-29T11:32:13.308Z,3.12
2019-05-29T11:33:45.748Z,3.77
2019-05-29T11:35:18.224Z,3.52
2019-05-29T11:36:51.734Z,3.75
2019-05-29T11:38:24.550Z,3.20
2019-05-29T11:39:56.992Z,3.15
2019-05-29T11:41:29.567Z,3.92
2019-05-29T11:43:03.125Z,3.27
2019-05-29T11:44:35.835Z,3.08
2019-05-29T11:46:08.307Z,3.70
2019-05-29T11:47:40.649Z,3.75
2019-05-29T11:49:13.072Z,3.72
2019-05-29T11:50:45.483Z,3.50
2019-05-29T11:52:24.052Z,3.33
2019-05-29T11:53:53.329Z,3.40
2019-05-29T11:55:26.099Z,3.45
2019-05-29T11:56:59.173Z,3.25
2019-05-29T11:58:31.938Z,3.02
2019-05-29T12:00:16.800Z,2.80
2019-05-29T12:01:49.802Z,2.80
2019-05-29T12:03:13.061Z,3.20
2019-05-29T12:04:45.578Z,3.20
2019-05-29T12:06:17.989Z,3.30
2019-05-29T12:07:51.559Z,2.58
2019-05-29T12:09:32.978Z,2.77
2019-05-29T12:10:59.466Z,3.40
2019-05-29T12:12:31.945Z,3.20
2019-05-29T12:14:04.802Z,3.05
2019-05-29T12:15:37.226Z,2.90
2019-05-29T12:17:09.643Z,3.60
2019-05-29T12:18:42.111Z,3.62
2019-05-29T12:20:26.754Z,3.45
2019-05-29T12:21:48.951Z,3.47
2019-05-29T12:23:26.424Z,3.50
2019-05-29T12:24:56.524Z,3.47
2019-05-29T12:26:29.137Z,3.33
2019-05-29T12:28:03.212Z,3.25
2019-05-29T12:29:35.659Z,3.60
2019-05-29T12:31:08.160Z,3.17
2019-05-29T12:32:41.068Z,3.50
2019-05-29T12:34:19.187Z,3.70
2019-05-29T12:35:50.145Z,3.70
2019-05-29T12:37:21.748Z,3.10
2019-05-29T12:38:55.216Z,3.40
2019-05-29T12:40:27.768Z,2.80
2019-05-29T12:42:01.633Z,3.12
2019-05-29T12:43:34.346Z,3.65
2019-05-29T12:45:07.169Z,3.85
2019-05-29T12:46:39.972Z,3.60
2019-05-29T12:48:15.048Z,3.42
2019-05-29T12:49:46.521Z,3.12
2019-05-29T12:51:19.165Z,3.42
2019-05-29T12:52:51.583Z,3.40
2019-05-29T12:54:24.088Z,3.40
2019-05-29T12:55:58.182Z,3.10
2019-05-29T12:57:31.012Z,3.40
2019-05-29T12:59:04.694Z,3.40
2019-05-29T13:00:37.322Z,3.60
2019-05-29T13:02:09.736Z,4.25
2019-05-29T13:03:45.691Z,4.05
2019-05-29T13:05:20.414Z,4.33
2019-05-29T13:06:50.628Z,3.87
2019-05-29T13:08:23.121Z,4.30
2019-05-29T13:09:56.732Z,4.67
2019-05-29T13:11:29.243Z,5.10
2019-05-29T13:13:08.426Z,4.53
2019-05-29T13:14:36.518Z,4.50
2019-05-29T13:16:08.964Z,5.10
2019-05-29T13:17:41.368Z,4.53
2019-05-29T13:19:14.015Z,4.13
2019-05-29T13:20:46.538Z,4.17
2019-05-29T13:22:19.411Z,3.87
2019-05-29T13:23:51.912Z,3.93
2019-05-29T13:25:24.442Z,3.90
2019-05-29T13:26:57.635Z,4.20
2019-05-29T13:28:30.112Z,3.97
2019-05-29T13:30:04.191Z,3.73
2019-05-29T13:31:36.577Z,4.03
2019-05-29T13:33:09.266Z,4.50
2019-05-29T13:34:41.766Z,4.10
2019-05-29T13:36:14.387Z,3.67
2019-05-29T13:37:46.972Z,4.17
2019-05-29T13:39:19.419Z,4.43
2019-05-29T13:40:51.932Z,4.03
2019-05-29T13:42:24.451Z,3.77
2019-05-29T13:43:58.310Z,3.50
2019-05-29T13:45:30.989Z,3.50
2019-05-29T13:47:04.083Z,3.80
2019-05-29T13:48:36.636Z,4.23
2019-05-29T13:50:11.966Z,4.47
2019-05-29T13:51:43.192Z,4.30
2019-05-29T13:53:15.600Z,4.40
2019-05-29T13:54:48.003Z,4.47
2019-05-29T13:56:24.046Z,4.53
2019-05-29T13:57:54.599Z,4.60
2019-05-29T13:59:27.005Z,4.20
2019-05-29T14:01:00.756Z,4.20
2019-05-29T14:02:33.638Z,4.75
2019-05-29T14:04:06.849Z,3.92
2019-05-29T14:05:39.431Z,4.72
2019-05-29T14:07:11.849Z,4.00
2019-05-29T14:08:44.343Z,4.42
2019-05-29T14:10:16.757Z,4.10
2019-05-29T14:11:49.179Z,4.28
2019-05-29T14:13:21.586Z,4.08
2019-05-29T14:14:53.995Z,3.87
2019-05-29T14:16:26.333Z,4.22
2019-05-29T14:17:58.694Z,4.55
2019-05-29T14:19:32.329Z,5.15
2019-05-29T14:21:05.116Z,4.55
2019-05-29T14:22:37.660Z,4.67
2019-05-29T14:24:26.237Z,4.95
2019-05-29T14:25:44.091Z,4.72
2019-05-29T14:27:16.452Z,5.10
2019-05-29T14:28:49.002Z,4.80
2019-05-29T14:30:21.454Z,4.83
2019-05-29T14:31:54.023Z,4.45
2019-05-29T14:33:26.533Z,4.60
2019-05-29T14:34:59.091Z,4.20
2019-05-29T14:36:31.497Z,4.50
2019-05-29T14:38:08.779Z,3.90
2019-05-29T14:39:38.059Z,4.45
2019-05-29T14:41:10.402Z,4.37
2019-05-29T14:42:42.912Z,3.90
2019-05-29T14:44:17.213Z,4.28
2019-05-29T14:45:49.871Z,3.98
2019-05-29T14:47:22.359Z,4.03
2019-05-29T14:48:54.783Z,3.85
2019-05-29T14:50:27.643Z,4.17
2019-05-29T14:52:00.235Z,4.10
2019-05-29T14:53:33.946Z,3.70
2019-05-29T14:55:06.725Z,3.67
2019-05-29T14:56:39.804Z,4.20
2019-05-29T14:58:12.244Z,3.85
2019-05-29T14:59:45.215Z,3.52
2019-05-29T15:01:17.600Z,3.95
2019-05-29T15:02:50.024Z,4.10
2019-05-29T15:04:22.503Z,3.67
2019-05-29T15:05:55.087Z,3.58
2019-05-29T15:07:27.425Z,2.98
2019-05-29T15:08:59.854Z,3.00
2019-05-29T15:10:32.183Z,3.02
2019-05-29T15:12:05.883Z,2.85
2019-05-29T15:13:38.455Z,2.77
2019-05-29T15:15:13.133Z,3.00
2019-05-29T15:16:44.896Z,3.12
2019-05-29T15:18:19.077Z,3.05
2019-05-29T15:19:51.536Z,3.10
2019-05-29T15:21:24.132Z,2.98
2019-05-29T15:22:56.605Z,3.12
2019-05-29T15:24:29.040Z,3.37
2019-05-29T15:26:01.436Z,3.47
2019-05-29T15:27:33.842Z,3.77
2019-05-29T15:29:06.340Z,3.25
2019-05-29T15:30:38.746Z,3.20
2019-05-29T15:32:12.337Z,3.40
2019-05-29T15:33:45.050Z,3.30
2019-05-29T15:35:19.800Z,3.70
2019-05-29T15:36:51.938Z,3.80
2019-05-29T15:38:24.498Z,4.17
2019-05-29T15:39:56.929Z,4.60
2019-05-29T15:41:29.485Z,3.72
2019-05-29T15:43:01.938Z,3.30
2019-05-29T15:44:34.326Z,3.05
2019-05-29T15:46:09.555Z,3.33
2019-05-29T15:47:40.830Z,3.10
2019-05-29T15:49:13.176Z,3.35
2019-05-29T15:50:45.585Z,3.58
2019-05-29T15:52:18.061Z,3.62
2019-05-29T15:53:50.502Z,3.95
2019-05-29T15:55:32.829Z,3.83
2019-05-29T15:56:57.096Z,4.10
2019-05-29T15:58:29.671Z,3.52
2019-05-29T16:00:02.529Z,3.72
2019-05-29T16:01:35.085Z,3.93
2019-05-29T16:03:07.702Z,4.13
2019-05-29T16:04:40.373Z,3.62
2019-05-29T16:06:13.863Z,4.00
2019-05-29T16:07:46.353Z,4.30
2019-05-29T16:09:18.910Z,4.20
2019-05-29T16:10:51.363Z,4.50
2019-05-29T16:12:24.487Z,4.63
2019-05-29T16:13:56.875Z,4.17
2019-05-29T16:15:29.307Z,4.50
2019-05-29T16:17:01.828Z,4.23
2019-05-29T16:18:34.713Z,3.73
2019-05-29T16:20:07.563Z,4.07
2019-05-29T16:21:40.036Z,4.33
2019-05-29T16:23:13.967Z,4.37
2019-05-29T16:24:46.514Z,4.60
2019-05-29T16:26:20.046Z,4.10
2019-05-29T16:27:52.967Z,4.30
2019-05-29T16:29:25.368Z,5.10
2019-05-29T16:30:57.715Z,4.70
2019-05-29T16:32:30.275Z,5.07
2019-05-29T16:34:03.773Z,4.53
2019-05-29T16:35:37.622Z,4.13
2019-05-29T16:37:11.199Z,4.70
2019-05-29T16:38:43.931Z,4.60
2019-05-29T16:40:16.497Z,5.10
2019-05-29T16:41:50.231Z,6.00
2019-05-29T16:43:22.950Z,5.93
2019-05-29T16:44:55.437Z,6.10
2019-05-29T16:46:27.917Z,6.37
2019-05-29T16:48:01.387Z,6.07
2019-05-29T16:49:33.809Z,7.07
2019-05-29T16:51:06.845Z,6.80
2019-05-29T16:52:39.303Z,6.40
2019-05-29T16:54:12.871Z,6.40
2019-05-29T16:55:53.904Z,6.23
2019-05-29T16:57:19.635Z,6.17
2019-05-29T16:58:52.068Z,5.77
2019-05-29T17:00:24.473Z,5.60
2019-05-29T17:01:56.888Z,5.63
2019-05-29T17:03:29.248Z,5.60
2019-05-29T17:05:01.648Z,5.60
2019-05-29T17:06:34.062Z,5.60
2019-05-29T17:08:06.504Z,5.37
2019-05-29T17:09:38.923Z,5.63
2019-05-29T17:11:11.325Z,5.53
2019-05-29T17:12:43.845Z,4.80
2019-05-29T17:14:16.495Z,4.97
2019-05-29T17:15:49.011Z,4.77
2019-05-29T17:17:22.595Z,4.70
2019-05-29T17:18:55.224Z,5.23
2019-05-29T17:20:27.711Z,4.90
2019-05-29T17:22:00.123Z,4.70
2019-05-29T17:23:32.709Z,4.80
2019-05-29T17:25:05.228Z,4.33
2019-05-29T17:26:37.711Z,3.80
2019-05-29T17:28:10.218Z,4.07
2019-05-29T17:29:42.677Z,3.83
2019-05-29T17:31:15.098Z,3.80
2019-05-29T17:32:47.594Z,3.80
2019-05-29T17:34:21.061Z,3.80
2019-05-29T17:35:53.642Z,4.13
2019-05-29T17:37:26.086Z,3.90
2019-05-29T17:38:58.562Z,3.77
2019-05-29T17:40:30.997Z,4.00
2019-05-29T17:42:03.437Z,3.97
2019-05-29T17:43:35.870Z,4.07
2019-05-29T17:45:08.583Z,4.63
2019-05-29T17:46:47.710Z,3.93
2019-05-29T17:48:21.597Z,4.40
2019-05-29T17:49:54.165Z,4.20
2019-05-29T17:51:26.652Z,3.97
2019-05-29T17:52:59.068Z,3.93
2019-05-29T17:54:31.456Z,3.57
2019-05-29T17:56:03.941Z,3.90
2019-05-29T17:57:36.501Z,4.53
2019-05-29T17:59:08.957Z,4.20
2019-05-29T18:00:41.447Z,3.37
2019-05-29T18:02:13.945Z,3.37
2019-05-29T18:03:46.431Z,3.50
2019-05-29T18:05:18.937Z,3.43
2019-05-29T18:06:51.701Z,3.20
2019-05-29T18:08:25.012Z,3.77
2019-05-29T18:09:57.615Z,3.90
2019-05-29T18:11:30.732Z,3.90
2019-05-29T18:13:03.075Z,3.80
2019-05-29T18:14:35.521Z,4.20
2019-05-29T18:16:07.933Z,4.10
2019-05-29T18:17:40.272Z,4.03
2019-05-29T18:19:12.768Z,3.90
2019-05-29T18:20:45.175Z,4.20
2019-05-29T18:22:17.604Z,3.90
2019-05-29T18:23:53.253Z,4.23
2019-05-29T18:25:24.209Z,4.03
2019-05-29T18:26:59.015Z,4.10
2019-05-29T18:28:30.719Z,4.03
2019-05-29T18:30:03.211Z,4.03
2019-05-29T18:31:35.558Z,4.20
2019-05-29T18:33:08.023Z,4.37
2019-05-29T18:34:40.445Z,3.80
2019-05-29T18:36:12.794Z,4.50
2019-05-29T18:37:45.306Z,4.90
2019-05-29T18:39:18.246Z,5.20
2019-05-29T18:40:50.685Z,5.23
2019-05-29T18:42:25.234Z,5.03
2019-05-29T18:43:57.247Z,5.97
2019-05-29T18:45:29.648Z,5.00
2019-05-29T18:47:02.126Z,5.10
2019-05-29T18:48:34.627Z,4.90
2019-05-29T18:50:07.048Z,5.00
2019-05-29T18:51:39.381Z,4.47
2019-05-29T18:53:11.860Z,4.93
2019-05-29T18:54:44.292Z,4.40
2019-05-29T18:56:16.773Z,4.60
2019-05-29T18:57:49.251Z,4.63
2019-05-29T18:59:21.684Z,4.77
2019-05-29T19:00:54.172Z,4.40
2019-05-29T19:02:27.488Z,4.87
2019-05-29T19:03:59.896Z,4.20
2019-05-29T19:05:32.319Z,4.30
2019-05-29T19:07:04.738Z,4.00
2019-05-29T19:08:37.069Z,4.47
2019-05-29T19:10:09.564Z,4.47
2019-05-29T19:11:41.961Z,4.30
2019-05-29T19:13:14.375Z,4.73
2019-05-29T19:14:46.735Z,4.60
2019-05-29T19:16:19.175Z,4.47
2019-05-29T19:17:51.647Z,4.50
2019-05-29T19:19:24.166Z,4.43
2019-05-29T19:20:56.743Z,4.17
2019-05-29T19:22:30.421Z,3.97
2019-05-29T19:24:03.129Z,3.90
2019-05-29T19:25:35.924Z,4.30
2019-05-29T19:27:08.332Z,4.03
2019-05-29T19:28:40.726Z,3.87
2019-05-29T19:30:13.155Z,4.37
2019-05-29T19:31:45.495Z,4.40
2019-05-29T19:33:17.921Z,4.30
2019-05-29T19:34:50.328Z,4.30
2019-05-29T19:36:23.605Z,4.00
2019-05-29T19:37:56.225Z,4.00
2019-05-29T19:39:30.193Z,4.00
2019-05-29T19:41:02.779Z,3.90
2019-05-29T19:42:35.259Z,3.60
2019-05-29T19:44:07.746Z,3.93
2019-05-29T19:45:40.170Z,4.03
2019-05-29T19:47:12.648Z,4.17
2019-05-29T19:48:44.985Z,3.80
2019-05-29T19:50:17.430Z,3.80
2019-05-29T19:51:49.844Z,3.43
2019-05-29T19:53:24.675Z,4.33
2019-05-29T19:54:56.343Z,4.00
2019-05-29T19:56:29.634Z,3.57
2019-05-29T19:58:02.279Z,3.60
2019-05-29T19:59:36.176Z,4.03
2019-05-29T20:01:08.877Z,4.37
2019-05-29T20:02:41.286Z,4.10
2019-05-29T20:04:13.708Z,4.50
2019-05-29T20:05:46.296Z,4.17
2019-05-29T20:07:18.760Z,4.00
2019-05-29T20:08:51.095Z,4.40
2019-05-29T20:10:23.491Z,4.27
2019-05-29T20:11:55.982Z,3.77
2019-05-29T20:13:29.941Z,4.10
2019-05-29T20:15:02.652Z,3.77
2019-05-29T20:16:36.229Z,3.67
2019-05-29T20:18:08.786Z,3.83
2019-05-29T20:19:41.265Z,3.90
2019-05-29T20:21:13.972Z,3.90
2019-05-29T20:22:46.509Z,3.70
2019-05-29T20:24:18.922Z,3.37
2019-05-29T20:25:51.474Z,3.83
2019-05-29T20:27:23.983Z,3.80
2019-05-29T20:28:56.315Z,3.60
2019-05-29T20:30:28.743Z,3.70
2019-05-29T20:32:01.076Z,3.90
2019-05-29T20:33:34.519Z,3.63
2019-05-29T20:35:06.995Z,4.20
2019-05-29T20:36:40.067Z,3.77
2019-05-29T20:38:12.876Z,3.90